Time;durP1;ratioP1;P1;durP2;ratioP2;P2;SDS_P1;SDS_P2;PMS_P1;PMS_P2;Temp;Humidity;BMP_temperature;BMP_pressure;BME280_temperature;BME280_humidity;BME280_pressure;Samples;Min_cycle;Max_cycle;Signal;HPM_P1;HPM_P2
2022/06/10 00:01:03;;;;;;;4.93;1.10;;;18.50;99.90;;;;;;5037990;28;20036;-84
2022/06/10 00:03:29;;;;;;;3.00;0.80;;;18.50;99.90;;;;;;5021609;28;20484;-84
2022/06/10 00:05:58;;;;;;;5.82;1.20;;;18.50;99.90;;;;;;5037940;28;20029;-84
2022/06/10 00:08:27;;;;;;;2.85;0.90;;;18.50;99.90;;;;;;5037709;28;20129;-83
2022/06/10 00:10:53;;;;;;;3.92;1.00;;;18.50;99.90;;;;;;5037823;28;20070;-84
2022/06/10 00:13:23;;;;;;;3.88;1.00;;;18.50;99.90;;;;;;5037683;28;20028;-84
2022/06/10 00:15:49;;;;;;;2.38;0.90;;;18.50;99.90;;;;;;5055563;28;20017;-84
2022/06/10 00:18:16;;;;;;;8.18;1.20;;;18.40;99.90;;;;;;5037601;28;20029;-84
2022/06/10 00:20:42;;;;;;;3.90;1.13;;;18.40;99.90;;;;;;5055377;28;20040;-84
2022/06/10 00:23:09;;;;;;;5.35;0.88;;;18.40;99.90;;;;;;5037521;28;20053;-84
2022/06/10 00:25:36;;;;;;;4.53;0.90;;;18.40;99.90;;;;;;5037231;28;20074;-84
2022/06/10 00:28:02;;;;;;;5.53;0.98;;;18.40;99.90;;;;;;5053933;28;20032;-84
2022/06/10 00:30:29;;;;;;;6.28;1.00;;;18.40;99.90;;;;;;5037274;28;20017;-84
2022/06/10 00:32:59;;;;;;;1.80;0.82;;;18.40;99.90;;;;;;5037239;28;20028;-84
2022/06/10 00:35:27;;;;;;;4.90;0.93;;;18.40;99.90;;;;;;5037085;28;20033;-84
2022/06/10 00:37:53;;;;;;;4.50;1.10;;;18.40;99.90;;;;;;5037110;28;20396;-84
2022/06/10 00:40:29;;;;;;;3.65;0.98;;;18.30;99.90;;;;;;5020760;28;20028;-84
2022/06/10 00:42:56;;;;;;;5.82;0.90;;;18.30;99.90;;;;;;5036650;28;20415;-84
2022/06/10 00:45:44;;;;;;;4.97;1.17;;;18.40;99.90;;;;;;5055054;28;20446;-84
2022/06/10 00:48:15;;;;;;;4.30;1.25;;;18.30;99.90;;;;;;5037022;28;20021;-84
2022/06/10 00:50:41;;;;;;;4.70;1.05;;;18.30;99.90;;;;;;5037114;28;20029;-84
2022/06/10 00:53:11;;;;;;;3.75;0.90;;;18.30;99.90;;;;;;5055159;28;20017;-84
2022/06/10 00:55:38;;;;;;;5.18;1.00;;;18.30;99.90;;;;;;5036955;28;20027;-84
2022/06/10 00:58:31;;;;;;;6.90;0.88;;;18.30;99.90;;;;;;5054772;28;20064;-84
2022/06/10 01:00:57;;;;;;;4.60;1.00;;;18.30;99.90;;;;;;5036747;28;20029;-84
2022/06/10 01:03:23;;;;;;;4.05;1.13;;;18.30;99.90;;;;;;5036813;28;20039;-84
2022/06/10 01:05:49;;;;;;;3.05;0.73;;;18.30;99.90;;;;;;5036794;28;20021;-84
2022/06/10 01:08:17;;;;;;;4.45;0.80;;;18.30;99.90;;;;;;5036676;28;20036;-83
2022/06/10 01:11:27;;;;;;;2.80;0.80;;;18.30;99.90;;;;;;5036532;28;20032;-84
2022/06/10 01:13:55;;;;;;;3.35;0.88;;;18.30;99.90;;;;;;5017927;28;20033;-84
2022/06/10 01:16:33;;;;;;;2.67;0.60;;;18.30;99.90;;;;;;5036628;28;20093;-84
2022/06/10 01:19:31;;;;;;;3.25;0.93;;;18.20;99.90;;;;;;5054700;28;20059;-84
2022/06/10 01:22:33;;;;;;;4.15;0.75;;;18.20;99.90;;;;;;5054369;28;20021;-84
2022/06/10 01:25:17;;;;;;;5.95;0.90;;;18.20;99.90;;;;;;5036240;28;20140;-84
2022/06/10 01:28:31;;;;;;;3.80;0.80;;;18.20;99.90;;;;;;5036324;28;20389;-84
2022/06/10 01:31:03;;;;;;;5.20;1.10;;;18.20;99.90;;;;;;5054421;28;20468;-84
2022/06/10 01:33:56;;;;;;;2.28;0.70;;;18.20;99.90;;;;;;5036175;28;20060;-84
2022/06/10 01:36:30;;;;;;;1.45;0.75;;;18.20;99.90;;;;;;5036165;28;20021;-83
2022/06/10 01:38:56;;;;;;;;;;;18.20;99.90;;;;;;5036544;28;20055;-84
2022/06/10 01:41:44;;;;;;;3.08;0.90;;;18.20;99.90;;;;;;5053939;28;19905;-83
2022/06/10 01:44:28;;;;;;;3.88;1.10;;;18.20;99.90;;;;;;5054224;28;20025;-84
2022/06/10 01:47:09;;;;;;;4.03;1.02;;;18.20;99.90;;;;;;5035958;28;20025;-83
2022/06/10 01:49:42;;;;;;;2.65;0.88;;;18.10;99.90;;;;;;5054110;28;20055;-84
2022/06/10 01:52:19;;;;;;;3.15;0.88;;;18.10;99.90;;;;;;5035915;28;20025;-84
2022/06/10 01:54:49;;;;;;;2.60;0.80;;;18.10;99.90;;;;;;5035528;28;20025;-84
2022/06/10 01:57:24;;;;;;;2.97;0.55;;;18.10;99.90;;;;;;5053600;28;20029;-84
2022/06/10 02:00:02;;;;;;;2.53;0.80;;;18.10;99.90;;;;;;5035735;28;20021;-84
2022/06/10 02:02:34;;;;;;;7.40;1.02;;;18.10;99.90;;;;;;5035741;28;20098;-84
2022/06/10 02:05:06;;;;;;;3.10;0.82;;;18.10;99.90;;;;;;5053551;28;20028;-84
2022/06/10 02:07:37;;;;;;;5.93;1.05;;;18.00;99.90;;;;;;5053718;28;20033;-84
2022/06/10 02:10:27;;;;;;;2.72;0.80;;;18.10;99.90;;;;;;5036438;28;20055;-84
2022/06/10 02:12:59;;;;;;;4.57;0.80;;;18.00;99.90;;;;;;5053458;28;20476;-83
2022/06/10 02:15:40;;;;;;;2.72;1.02;;;18.00;99.90;;;;;;5053438;28;20044;-84
2022/06/10 02:18:23;;;;;;;3.65;1.33;;;18.00;99.90;;;;;;5035450;28;20112;-84
2022/06/10 02:20:58;;;;;;;3.42;1.10;;;18.00;99.90;;;;;;5035426;28;20392;-84
2022/06/10 02:23:29;;;;;;;5.88;0.90;;;18.00;99.90;;;;;;5052761;28;20029;-84
2022/06/10 02:25:56;;;;;;;2.17;0.80;;;18.00;99.90;;;;;;5033651;28;20033;-84
2022/06/10 02:28:38;;;;;;;3.08;0.90;;;18.00;99.90;;;;;;5015480;28;20032;-84
2022/06/10 02:31:11;;;;;;;2.55;1.00;;;18.00;99.90;;;;;;5015581;28;20025;-84
2022/06/10 02:33:38;;;;;;;2.88;0.90;;;18.00;99.90;;;;;;5015633;28;20508;-84
2022/06/10 02:36:20;;;;;;;1.50;0.70;;;18.00;99.90;;;;;;5033807;28;20049;-84
2022/06/10 02:39:01;;;;;;;2.88;0.90;;;18.00;99.90;;;;;;5015585;28;20080;-84
2022/06/10 02:41:41;;;;;;;3.42;1.10;;;17.90;99.90;;;;;;5033287;28;20570;-84
2022/06/10 02:44:38;;;;;;;2.42;0.98;;;18.00;99.90;;;;;;5015542;28;20045;-84
2022/06/10 02:47:25;;;;;;;4.38;0.80;;;17.90;99.80;;;;;;5015400;28;20036;-84
2022/06/10 02:49:52;;;;;;;1.90;0.80;;;17.90;99.90;;;;;;5033239;28;20100;-84
2022/06/10 02:52:20;;;;;;;3.17;0.80;;;17.90;99.80;;;;;;5015444;28;20029;-84
2022/06/10 02:54:47;;;;;;;2.58;0.68;;;17.90;99.80;;;;;;5015431;28;20029;-84
2022/06/10 03:01:11;;;;;;;2.90;0.80;;;17.90;99.80;;;;;;5015269;28;20477;-84
2022/06/10 03:03:14;;;;;;;1.75;0.75;;;17.90;99.80;;;;;;5033557;28;20384;-84
2022/06/10 03:05:55;;;;;;;7.03;1.20;;;17.90;99.80;;;;;;5032965;28;20472;-84
2022/06/10 03:08:45;;;;;;;2.92;0.80;;;17.80;99.70;;;;;;5019084;28;20519;-84
2022/06/10 03:11:21;;;;;;;1.98;0.80;;;17.80;99.70;;;;;;5019167;28;20397;-84
2022/06/10 03:13:49;;;;;;;3.03;1.05;;;17.80;99.70;;;;;;5018894;28;20029;-85
2022/06/10 03:37:09;;;;;;;8.13;0.90;;;17.80;99.50;;;;;;5047698;28;20389;-84
2022/06/10 03:39:35;;;;;;;2.90;0.70;;;17.70;99.50;;;;;;5018637;28;20022;-84
2022/06/10 03:42:17;;;;;;;5.05;0.85;;;17.70;99.50;;;;;;5018647;28;20024;-84
2022/06/10 03:44:46;;;;;;;3.90;0.80;;;17.70;99.50;;;;;;5018652;28;20048;-84
2022/06/10 03:47:22;;;;;;;3.90;0.90;;;17.70;99.40;;;;;;5036213;28;20486;-84
2022/06/10 03:50:12;;;;;;;4.10;0.90;;;17.70;99.40;;;;;;5018518;28;20021;-84
2022/06/10 03:52:40;;;;;;;5.13;1.00;;;17.70;99.40;;;;;;5036427;28;20014;-84
2022/06/10 03:55:07;;;;;;;3.22;0.85;;;17.70;99.40;;;;;;5018380;28;20383;-84
2022/06/10 03:57:34;;;;;;;4.40;0.90;;;17.70;99.40;;;;;;5018314;28;20032;-84
2022/06/10 04:00:00;;;;;;;3.97;1.15;;;17.70;99.40;;;;;;5018237;28;20025;-84
2022/06/10 04:02:26;;;;;;;5.45;1.00;;;17.70;99.40;;;;;;5018191;28;20083;-84
2022/06/10 04:04:51;;;;;;;4.45;1.05;;;17.70;99.40;;;;;;5018194;28;20025;-84
2022/06/10 04:07:18;;;;;;;3.20;1.10;;;17.70;99.40;;;;;;5018041;28;20065;-84
2022/06/10 04:09:46;;;;;;;5.22;1.13;;;17.70;99.40;;;;;;5018076;28;20026;-84
2022/06/10 04:12:12;;;;;;;3.78;1.40;;;17.70;99.40;;;;;;5035584;28;20033;-84
2022/06/10 04:14:37;;;;;;;2.75;1.10;;;17.70;99.40;;;;;;5018031;28;20022;-84
2022/06/10 04:17:04;;;;;;;5.93;1.10;;;17.70;99.30;;;;;;5017910;28;20164;-84
2022/06/10 04:19:29;;;;;;;3.08;1.20;;;17.60;99.30;;;;;;5017081;28;20022;-84
2022/06/10 04:21:55;;;;;;;4.15;1.13;;;17.60;99.30;;;;;;5017818;28;20032;-84
2022/06/10 04:24:21;;;;;;;3.00;1.10;;;17.60;99.30;;;;;;5035871;28;20108;-84
2022/06/10 04:26:47;;;;;;;7.32;1.33;;;17.60;99.30;;;;;;5017696;28;20026;-84
2022/06/10 04:29:14;;;;;;;3.63;1.00;;;17.60;99.30;;;;;;5018774;28;20080;-84
2022/06/10 04:31:40;;;;;;;2.95;0.80;;;17.60;99.40;;;;;;5017605;28;20507;-84
2022/06/10 04:34:05;;;;;;;2.85;1.15;;;17.60;99.30;;;;;;5035342;28;20017;-83
2022/06/10 04:36:31;;;;;;;4.03;1.23;;;17.60;99.40;;;;;;5017362;28;20025;-84
2022/06/10 04:38:57;;;;;;;2.75;1.00;;;17.60;99.40;;;;;;5017495;28;20116;-84
2022/06/10 04:41:23;;;;;;;6.30;1.27;;;17.60;99.40;;;;;;5017508;28;20021;-84
2022/06/10 04:43:49;;;;;;;3.00;1.50;;;17.60;99.40;;;;;;5035199;28;20124;-84
2022/06/10 04:46:27;;;;;;;2.55;0.90;;;17.60;99.40;;;;;;5017276;28;20072;-84
2022/06/10 04:48:53;;;;;;;4.30;1.40;;;17.60;99.40;;;;;;5034956;28;20032;-84
2022/06/10 04:51:19;;;;;;;3.83;1.10;;;17.60;99.40;;;;;;5034994;28;20468;-84
2022/06/10 04:53:45;;;;;;;4.30;1.08;;;17.60;99.40;;;;;;5034924;28;20030;-83
2022/06/10 04:56:11;;;;;;;2.15;1.00;;;17.60;99.40;;;;;;5017108;28;20087;-83
2022/06/10 04:58:37;;;;;;;3.70;0.98;;;17.60;99.80;;;;;;5017038;28;20030;-83
2022/06/10 05:01:02;;;;;;;3.85;1.23;;;17.60;99.40;;;;;;5018116;28;20029;-84
2022/06/10 05:03:28;;;;;;;3.70;1.13;;;17.60;99.50;;;;;;5034730;28;20032;-84
2022/06/10 05:05:54;;;;;;;4.53;1.00;;;17.60;99.50;;;;;;5016924;28;20210;-83
2022/06/10 05:08:19;;;;;;;2.85;1.30;;;17.60;99.50;;;;;;5016830;28;20452;-84
2022/06/10 05:10:47;;;;;;;3.35;0.90;;;17.60;99.60;;;;;;5016858;28;20026;-84
2022/06/10 05:13:16;;;;;;;3.47;1.08;;;17.60;99.60;;;;;;5016769;28;20040;-83
2022/06/10 05:15:42;;;;;;;2.88;0.95;;;17.60;99.60;;;;;;5034744;28;20028;-84
2022/06/10 05:18:09;;;;;;;3.10;1.30;;;17.60;99.60;;;;;;5016757;28;20485;-83
2022/06/10 05:20:40;;;;;;;4.43;1.10;;;17.60;99.60;;;;;;5016641;28;20033;-84
2022/06/10 05:23:07;;;;;;;4.80;1.15;;;17.60;99.70;;;;;;5016672;28;20626;-83
2022/06/10 05:25:34;;;;;;;7.57;1.17;;;17.60;99.70;;;;;;5016549;28;20112;-84
2022/06/10 05:28:00;;;;;;;5.38;1.00;;;17.70;99.90;;;;;;5016425;28;20059;-84
2022/06/10 05:30:27;;;;;;;3.10;1.13;;;17.60;99.80;;;;;;5034165;28;20026;-84
2022/06/10 05:32:53;;;;;;;5.45;0.90;;;17.60;99.80;;;;;;5016431;28;20030;-84
2022/06/10 05:35:19;;;;;;;4.95;1.17;;;17.70;99.90;;;;;;5034131;28;20366;-83
2022/06/10 05:37:47;;;;;;;3.03;1.08;;;17.60;99.90;;;;;;5033862;28;20049;-83
2022/06/10 05:40:14;;;;;;;4.43;1.20;;;17.60;99.90;;;;;;5016310;28;20439;-83
2022/06/10 05:42:40;;;;;;;2.45;1.08;;;17.70;99.90;;;;;;5016425;28;20075;-83
2022/06/10 05:45:07;;;;;;;2.97;1.17;;;17.70;99.90;;;;;;5034010;28;20464;-84
2022/06/10 05:47:34;;;;;;;5.30;1.73;;;17.70;99.90;;;;;;4999754;28;20029;-83
2022/06/10 05:50:04;;;;;;;3.42;0.90;;;17.70;99.90;;;;;;5016199;28;20499;-83
2022/06/10 05:52:31;;;;;;;3.60;1.00;;;17.70;99.90;;;;;;5033854;28;20427;-83
2022/06/10 05:55:00;;;;;;;3.47;1.00;;;17.70;99.90;;;;;;5016098;28;20499;-83
2022/06/10 05:57:27;;;;;;;4.47;1.00;;;17.70;99.90;;;;;;5016056;28;20029;-83
2022/06/10 05:59:53;;;;;;;3.55;1.05;;;17.70;99.90;;;;;;5016032;28;20480;-83
2022/06/10 06:02:21;;;;;;;3.33;0.93;;;17.70;99.90;;;;;;5015978;28;20037;-83
2022/06/10 06:04:47;;;;;;;3.28;0.90;;;17.70;99.90;;;;;;5016018;28;20038;-83
2022/06/10 06:07:24;;;;;;;3.60;0.88;;;17.70;99.90;;;;;;5015931;28;20025;-83
2022/06/10 06:09:51;;;;;;;4.68;1.17;;;17.70;99.90;;;;;;5016136;28;20431;-83
2022/06/10 06:12:16;;;;;;;4.88;1.10;;;17.70;99.90;;;;;;5033352;28;20120;-83
2022/06/10 06:14:42;;;;;;;3.22;1.23;;;17.70;99.90;;;;;;5015892;28;20112;-83
2022/06/10 06:17:10;;;;;;;2.30;1.08;;;17.70;99.90;;;;;;5015779;28;20538;-83
2022/06/10 06:19:35;;;;;;;3.40;1.00;;;17.70;99.90;;;;;;5015650;28;20366;-83
2022/06/10 06:22:01;;;;;;;2.65;1.13;;;17.80;99.90;;;;;;5015697;28;20028;-83
2022/06/10 06:24:28;;;;;;;3.70;1.42;;;17.80;99.90;;;;;;5033422;28;20025;-83
2022/06/10 06:26:54;;;;;;;4.38;1.10;;;17.80;99.90;;;;;;5033359;28;20473;-83
2022/06/10 06:29:21;;;;;;;3.50;1.10;;;17.80;99.90;;;;;;5015533;28;20032;-83
2022/06/10 06:31:46;;;;;;;3.35;1.10;;;17.80;99.90;;;;;;5033597;28;20110;-83
2022/06/10 06:34:12;;;;;;;5.50;1.52;;;17.80;99.90;;;;;;5015550;28;20068;-83
2022/06/10 06:36:45;;;;;;;4.32;1.15;;;17.80;99.90;;;;;;5015441;28;20057;-83
2022/06/10 06:39:13;;;;;;;5.20;0.98;;;17.80;99.90;;;;;;5033605;28;20034;-83
2022/06/10 06:41:39;;;;;;;4.38;1.00;;;17.80;99.90;;;;;;5032881;28;20041;-83
2022/06/10 06:44:07;;;;;;;2.50;1.13;;;17.80;99.90;;;;;;5015509;28;20037;-83
2022/06/10 06:46:34;;;;;;;3.60;1.35;;;17.80;99.90;;;;;;5033513;28;20048;-83
2022/06/10 06:49:01;;;;;;;2.63;1.10;;;17.90;99.90;;;;;;5033105;28;20385;-83
2022/06/10 06:51:27;;;;;;;2.33;0.93;;;17.80;99.90;;;;;;5015609;28;20125;-83
2022/06/10 06:53:53;;;;;;;2.33;0.93;;;17.90;99.90;;;;;;5033374;28;20101;-83
2022/06/10 06:56:18;;;;;;;4.50;1.00;;;17.90;99.90;;;;;;5015377;28;20049;-83
2022/06/10 06:58:44;;;;;;;3.92;1.40;;;17.90;99.90;;;;;;5015316;28;20025;-83
2022/06/10 07:01:10;;;;;;;4.28;1.20;;;17.90;99.90;;;;;;5015376;28;20029;-83
2022/06/10 07:03:35;;;;;;;3.22;1.40;;;17.90;99.90;;;;;;5015345;28;20397;-83
2022/06/10 07:06:01;;;;;;;5.25;1.15;;;17.90;99.90;;;;;;5033538;28;20373;-83
2022/06/10 07:08:33;;;;;;;5.55;1.20;;;17.90;99.90;;;;;;5015282;28;20030;-83
2022/06/10 07:11:00;;;;;;;4.68;1.48;;;17.90;99.90;;;;;;5015354;28;20492;-83
2022/06/10 07:13:26;;;;;;;4.85;1.15;;;18.00;99.90;;;;;;5015294;28;20024;-83
2022/06/10 07:15:54;;;;;;;2.85;1.00;;;17.90;99.90;;;;;;5032959;28;20555;-83
2022/06/10 07:18:20;;;;;;;6.05;1.13;;;18.00;99.90;;;;;;5015404;28;20120;-82
2022/06/10 07:20:46;;;;;;;3.33;0.98;;;18.00;99.90;;;;;;5015133;28;20388;-83
2022/06/10 07:23:12;;;;;;;6.82;1.20;;;17.90;99.90;;;;;;5032880;28;20025;-83
2022/06/10 07:25:38;;;;;;;3.75;1.02;;;18.00;99.90;;;;;;5033124;28;20033;-83
2022/06/10 07:28:07;;;;;;;4.07;1.10;;;18.00;99.90;;;;;;5015003;28;20365;-83
2022/06/10 07:30:34;;;;;;;5.40;1.30;;;18.00;99.90;;;;;;5033096;28;20025;-83
2022/06/10 07:33:00;;;;;;;5.38;1.17;;;18.00;99.90;;;;;;5015349;28;20107;-83
2022/06/10 07:35:27;;;;;;;2.95;1.17;;;18.00;99.90;;;;;;5015013;28;20049;-83
2022/06/10 07:37:53;;;;;;;4.93;1.42;;;18.00;99.90;;;;;;5027724;28;20045;-83
2022/06/10 07:43:11;;;;;;;3.42;1.00;;;18.00;99.90;;;;;;5053176;28;20032;-83
2022/06/10 07:45:37;;;;;;;2.97;1.08;;;18.00;99.90;;;;;;5034767;28;20412;-83
2022/06/10 07:48:03;;;;;;;4.80;1.38;;;18.10;99.90;;;;;;5052775;28;20048;-83
2022/06/10 07:50:29;;;;;;;3.60;1.35;;;18.10;99.90;;;;;;5034570;28;20017;-83
2022/06/10 07:52:56;;;;;;;2.45;1.08;;;18.10;99.90;;;;;;5052494;28;20025;-83
2022/06/10 07:55:22;;;;;;;2.92;1.20;;;18.10;99.90;;;;;;5056095;28;20021;-83
2022/06/10 07:57:48;;;;;;;2.03;0.77;;;18.10;99.90;;;;;;5038891;28;20162;-83
2022/06/10 08:00:15;;;;;;;3.70;1.23;;;18.10;99.90;;;;;;5055794;28;20049;-83
2022/06/10 08:02:41;;;;;;;3.88;1.27;;;18.10;99.90;;;;;;5055965;28;20017;-83
2022/06/10 08:05:09;;;;;;;3.53;1.23;;;18.20;99.90;;;;;;5038050;28;20040;-83
2022/06/10 08:07:37;;;;;;;1.95;0.90;;;18.20;99.90;;;;;;5037764;28;20033;-83
2022/06/10 08:10:14;;;;;;;3.85;0.95;;;18.20;99.90;;;;;;5038588;28;20036;-83
2022/06/10 08:12:40;;;;;;;10.95;1.42;;;18.20;99.90;;;;;;5055771;28;20053;-83
2022/06/10 08:15:06;;;;;;;4.68;1.30;;;18.20;99.90;;;;;;5055688;28;20443;-83
2022/06/10 08:17:32;;;;;;;4.53;1.17;;;18.30;99.90;;;;;;5037659;28;20025;-83
2022/06/10 08:19:57;;;;;;;6.38;1.27;;;18.30;99.90;;;;;;5037723;28;20112;-83
2022/06/10 08:22:35;;;;;;;7.32;1.60;;;18.30;99.90;;;;;;5037717;28;20029;-83
2022/06/10 08:25:07;;;;;;;2.03;0.80;;;18.30;99.90;;;;;;5037649;28;20476;-83
2022/06/10 08:27:34;;;;;;;4.80;1.17;;;18.40;99.90;;;;;;5037574;28;20484;-83
2022/06/10 08:30:01;;;;;;;2.35;0.95;;;18.40;99.90;;;;;;5055398;28;20502;-83
2022/06/10 08:32:26;;;;;;;4.18;1.35;;;18.40;99.90;;;;;;5055346;28;20021;-83
2022/06/10 08:34:52;;;;;;;3.80;1.00;;;18.40;99.90;;;;;;5037479;28;20090;-83
2022/06/10 08:37:18;;;;;;;4.75;1.25;;;18.40;99.90;;;;;;5037191;28;20045;-83
2022/06/10 08:39:43;;;;;;;5.07;1.38;;;18.40;99.90;;;;;;5037361;28;20021;-83
2022/06/10 08:42:12;;;;;;;5.38;1.20;;;18.50;99.90;;;;;;5037297;28;20104;-83
2022/06/10 08:44:43;;;;;;;5.35;1.17;;;18.50;99.90;;;;;;5037241;28;20163;-83
2022/06/10 08:47:21;;;;;;;4.10;1.30;;;18.50;99.90;;;;;;5037229;28;20052;-83
2022/06/10 08:49:55;;;;;;;6.00;1.50;;;18.50;99.90;;;;;;5055067;28;20147;-83
2022/06/10 08:52:38;;;;;;;3.15;1.20;;;18.60;99.90;;;;;;5055013;28;20017;-83
2022/06/10 08:55:15;;;;;;;3.47;1.10;;;18.60;99.90;;;;;;5037084;28;20021;-84
2022/06/10 08:57:45;;;;;;;3.03;1.02;;;18.60;99.90;;;;;;5037067;28;20541;-83
2022/06/10 09:00:33;;;;;;;3.30;0.95;;;18.60;99.90;;;;;;5055287;28;20025;-83
2022/06/10 09:03:44;;;;;;;4.53;1.20;;;18.70;99.90;;;;;;5020814;28;20040;-83
2022/06/10 09:06:34;;;;;;;3.40;0.90;;;18.60;99.90;;;;;;5010500;28;20037;-83
2022/06/10 09:09:06;;;;;;;2.50;0.85;;;18.70;99.90;;;;;;5036038;28;20424;-84
2022/06/10 09:11:37;;;;;;;4.30;1.13;;;18.70;99.80;;;;;;5036694;28;20020;-83
2022/06/10 09:14:18;;;;;;;8.60;1.50;;;18.80;99.80;;;;;;5036693;28;20479;-83
2022/06/10 09:17:02;;;;;;;6.38;1.15;;;18.80;99.80;;;;;;5054832;28;20025;-83
2022/06/10 09:19:46;;;;;;;5.20;1.25;;;18.80;99.70;;;;;;5053799;28;20037;-83
2022/06/10 09:22:30;;;;;;;5.15;1.10;;;18.80;99.70;;;;;;5036531;28;20040;-83
2022/06/10 09:25:03;;;;;;;4.35;1.20;;;18.90;99.70;;;;;;5036521;28;20120;-83
2022/06/10 09:27:48;;;;;;;3.65;1.10;;;18.90;99.50;;;;;;5036308;28;20029;-83
2022/06/10 09:30:16;;;;;;;;;;;18.90;99.40;;;;;;5022499;28;20040;-83
2022/06/10 09:32:50;;;;;;;3.75;1.27;;;18.90;99.40;;;;;;5036251;28;19905;-83
2022/06/10 09:35:39;;;;;;;4.80;1.38;;;18.90;99.40;;;;;;5054108;28;20021;-83
2022/06/10 09:38:40;;;;;;;4.75;1.10;;;18.90;99.40;;;;;;5036009;28;20052;-83
2022/06/10 09:41:17;;;;;;;3.22;0.82;;;18.90;99.30;;;;;;5053559;28;20152;-83
2022/06/10 09:44:01;;;;;;;3.63;1.17;;;18.90;99.30;;;;;;5054040;28;20365;-84
2022/06/10 09:46:49;;;;;;;3.67;1.08;;;18.90;99.30;;;;;;5036091;28;20098;-83
2022/06/10 09:49:18;;;;;;;6.93;1.10;;;19.00;99.30;;;;;;5025597;28;20040;-83
2022/06/10 09:51:52;;;;;;;3.30;1.15;;;19.00;99.30;;;;;;5054242;28;20036;-83
2022/06/10 09:54:36;;;;;;;5.60;1.35;;;19.00;99.30;;;;;;5035891;28;20045;-84
2022/06/10 09:57:02;;;;;;;4.55;1.35;;;19.00;99.10;;;;;;5035943;28;20504;-83
2022/06/10 09:59:47;;;;;;;3.17;1.08;;;19.10;99.10;;;;;;5052936;28;20033;-83
2022/06/10 10:02:31;;;;;;;3.10;1.10;;;19.10;99.10;;;;;;5053668;28;20048;-83
2022/06/10 10:05:21;;;;;;;4.73;0.87;;;19.10;98.90;;;;;;5053651;28;20028;-83
2022/06/10 10:07:51;;;;;;;2.83;1.08;;;19.20;99.00;;;;;;5035606;28;20476;-83
2022/06/10 10:10:45;;;;;;;3.13;1.27;;;19.20;98.80;;;;;;5035619;28;20476;-83
2022/06/10 10:13:31;;;;;;;3.63;1.10;;;19.20;98.70;;;;;;5035622;28;20516;-84
2022/06/10 10:16:22;;;;;;;4.55;1.20;;;19.20;98.70;;;;;;5034969;28;20058;-83
2022/06/10 10:18:50;;;;;;;4.57;0.90;;;19.30;98.60;;;;;;5036370;28;20368;-83
2022/06/10 10:21:29;;;;;;;4.45;1.30;;;19.30;98.60;;;;;;5035455;28;20032;-84
2022/06/10 10:23:58;;;;;;;4.78;1.08;;;19.40;98.40;;;;;;5035752;28;20035;-83
2022/06/10 10:26:30;;;;;;;4.15;1.20;;;19.40;98.40;;;;;;5053254;28;20500;-84
2022/06/10 10:29:06;;;;;;;4.80;1.20;;;19.40;98.30;;;;;;5035226;28;20029;-84
2022/06/10 10:31:38;;;;;;;3.40;1.13;;;19.40;98.20;;;;;;5035317;28;20028;-84
2022/06/10 10:34:05;;;;;;;3.70;1.02;;;19.40;98.20;;;;;;5035336;28;20032;-83
2022/06/10 10:36:54;;;;;;;3.40;1.00;;;19.50;98.10;;;;;;5034124;28;20153;-83
2022/06/10 10:39:36;;;;;;;3.97;1.10;;;19.50;98.20;;;;;;5033274;28;20037;-83
2022/06/10 10:42:06;;;;;;;4.20;1.00;;;19.50;98.20;;;;;;5015805;28;20108;-83
2022/06/10 10:44:32;;;;;;;5.88;1.17;;;19.50;98.10;;;;;;5031961;28;20021;-84
2022/06/10 10:47:10;;;;;;;2.55;0.90;;;19.60;98.10;;;;;;5015459;28;20025;-84
2022/06/10 10:49:47;;;;;;;3.72;1.00;;;19.60;98.10;;;;;;5015388;28;20025;-85
2022/06/10 10:52:19;;;;;;;4.70;1.02;;;19.60;98.00;;;;;;5015412;28;20029;-84
2022/06/10 10:54:48;;;;;;;7.63;1.35;;;19.60;98.00;;;;;;5015442;28;20088;-83
2022/06/10 10:57:29;;;;;;;5.45;1.00;;;19.60;98.00;;;;;;4999249;28;20064;-83
2022/06/10 11:00:08;;;;;;;3.55;0.93;;;19.60;97.90;;;;;;5015311;28;20059;-84
2022/06/10 11:03:03;;;;;;;3.78;1.00;;;19.60;97.90;;;;;;5015408;28;20037;-84
2022/06/10 11:05:32;;;;;;;3.63;1.10;;;19.60;98.10;;;;;;5013132;28;20040;-83
2022/06/10 11:08:17;;;;;;;7.05;1.35;;;19.60;97.90;;;;;;5015233;28;20410;-83
2022/06/10 11:11:01;;;;;;;2.65;1.00;;;19.60;98.00;;;;;;5015654;28;20017;-84
2022/06/10 11:14:10;;;;;;;4.55;1.20;;;19.60;98.00;;;;;;5015311;28;20032;-83
2022/06/10 11:16:43;;;;;;;4.22;1.00;;;19.60;97.90;;;;;;4994433;28;20091;-83
2022/06/10 11:19:24;;;;;;;3.67;1.10;;;19.60;98.00;;;;;;4999666;28;20030;-84
2022/06/10 11:21:56;;;;;;;4.35;1.10;;;19.60;97.90;;;;;;5016270;28;20029;-84
2022/06/10 11:24:43;;;;;;;5.00;1.10;;;19.60;97.70;;;;;;5015127;28;20037;-83
2022/06/10 11:27:27;;;;;;;3.88;0.93;;;19.70;97.80;;;;;;5015576;28;20025;-83
2022/06/10 11:30:14;;;;;;;3.60;1.00;;;19.70;97.70;;;;;;5018917;28;20025;-84
2022/06/10 11:32:49;;;;;;;4.05;1.10;;;19.70;97.70;;;;;;5036563;28;20025;-83
2022/06/10 11:35:40;;;;;;;5.13;1.40;;;19.80;97.70;;;;;;5018745;28;20052;-83
2022/06/10 11:38:08;;;;;;;4.80;1.15;;;19.80;97.60;;;;;;5033196;28;20048;-83
2022/06/10 11:40:46;;;;;;;3.03;0.90;;;19.80;97.50;;;;;;5038412;28;20029;-84
2022/06/10 11:43:31;;;;;;;5.38;1.25;;;19.90;97.50;;;;;;5038329;28;20116;-83
2022/06/10 11:46:14;;;;;;;;;;;19.90;97.30;;;;;;5056586;28;20082;-83
2022/06/10 11:48:43;;;;;;;3.42;0.90;;;19.90;97.30;;;;;;5056091;28;19908;-83
2022/06/10 11:51:30;;;;;;;4.03;0.82;;;20.00;97.40;;;;;;5056096;28;20075;-84
2022/06/10 11:53:57;;;;;;;2.55;0.70;;;20.00;97.10;;;;;;5038221;28;20025;-84
2022/06/10 11:59:44;;;;;;;7.00;1.20;;;20.00;97.00;;;;;;5055985;28;20158;-85
2022/06/10 12:02:21;;;;;;;7.63;1.10;;;20.10;96.80;;;;;;5038052;28;20056;-84
2022/06/10 12:05:06;;;;;;;2.17;0.90;;;20.10;96.90;;;;;;5038095;28;20029;-84
2022/06/10 12:07:36;;;;;;;2.25;0.82;;;20.00;96.90;;;;;;5038211;28;20033;-84
2022/06/10 12:10:06;;;;;;;3.97;1.10;;;20.00;96.80;;;;;;5037861;28;20022;-84
2022/06/10 12:12:39;;;;;;;3.88;0.88;;;20.00;96.90;;;;;;5055810;28;20017;-84
2022/06/10 12:15:41;;;;;;;4.35;0.95;;;20.00;96.80;;;;;;5055179;28;20492;-84
2022/06/10 12:18:10;;;;;;;3.92;1.17;;;20.10;96.90;;;;;;4997193;28;20086;-84
2022/06/10 12:20:45;;;;;;;3.72;1.00;;;20.10;96.90;;;;;;5037805;28;20504;-84
2022/06/10 12:23:13;;;;;;;5.30;0.98;;;20.10;96.90;;;;;;5037662;28;20053;-84
2022/06/10 12:26:00;;;;;;;3.13;0.90;;;20.10;96.90;;;;;;5037636;28;20074;-84
2022/06/10 12:28:35;;;;;;;3.03;0.98;;;20.20;96.90;;;;;;5055686;28;20083;-84
2022/06/10 12:31:31;;;;;;;4.00;1.30;;;20.20;96.90;;;;;;5055473;28;20017;-84
2022/06/10 12:34:09;;;;;;;2.90;0.80;;;20.20;96.80;;;;;;5037412;28;20025;-84
2022/06/10 12:36:45;;;;;;;3.20;0.80;;;20.20;96.70;;;;;;5035218;28;20021;-84
2022/06/10 12:39:30;;;;;;;3.25;1.17;;;20.20;96.70;;;;;;5017298;28;20049;-84
2022/06/10 12:42:10;;;;;;;2.40;0.82;;;20.20;96.60;;;;;;5017610;28;20033;-84
2022/06/10 12:44:41;;;;;;;2.50;0.98;;;20.20;96.50;;;;;;5017514;28;20397;-84
2022/06/10 12:47:11;;;;;;;3.95;1.00;;;20.30;96.60;;;;;;5017506;28;20420;-84
2022/06/10 12:49:39;;;;;;;4.60;1.00;;;20.30;96.60;;;;;;5017341;28;20441;-84
2022/06/10 12:52:26;;;;;;;3.45;0.88;;;20.30;96.70;;;;;;5035106;28;20018;-84
2022/06/10 12:54:57;;;;;;;4.32;0.88;;;20.30;96.60;;;;;;5017297;28;20034;-84
2022/06/10 12:57:41;;;;;;;2.33;0.70;;;20.40;96.40;;;;;;5018137;28;20022;-84
2022/06/10 13:00:22;;;;;;;4.55;0.95;;;20.50;96.20;;;;;;5034960;28;20021;-84
2022/06/10 13:02:51;;;;;;;2.55;0.85;;;20.70;96.00;;;;;;5034452;28;20037;-84
2022/06/10 13:05:21;;;;;;;2.78;0.93;;;20.80;95.90;;;;;;5017108;28;20030;-84
2022/06/10 13:07:49;;;;;;;4.18;0.80;;;20.90;95.80;;;;;;5016940;28;20071;-84
2022/06/10 13:10:43;;;;;;;1.70;0.60;;;21.00;95.60;;;;;;5016995;28;20446;-84
2022/06/10 13:13:23;;;;;;;3.58;0.90;;;21.20;95.10;;;;;;5017115;28;20028;-84
2022/06/10 13:15:53;;;;;;;2.58;0.75;;;21.40;94.80;;;;;;5034909;28;20049;-84
2022/06/10 13:18:25;;;;;;;4.30;0.82;;;21.70;94.40;;;;;;5034578;28;20021;-84
2022/06/10 13:20:51;;;;;;;3.45;0.85;;;21.80;94.40;;;;;;5034813;28;20084;-84
2022/06/10 13:23:26;;;;;;;2.70;0.90;;;22.00;93.80;;;;;;5016731;28;20034;-84
2022/06/10 13:26:04;;;;;;;3.42;1.00;;;22.00;93.80;;;;;;5016742;28;20029;-84
2022/06/10 13:28:37;;;;;;;2.53;0.60;;;22.00;93.70;;;;;;5016619;28;20033;-84
2022/06/10 13:31:24;;;;;;;4.45;0.85;;;22.10;93.80;;;;;;5016702;28;20025;-84
2022/06/10 13:34:06;;;;;;;3.25;1.10;;;22.20;93.50;;;;;;5016584;28;20025;-84
2022/06/10 13:36:37;;;;;;;2.35;0.80;;;22.30;93.40;;;;;;5018162;28;20025;-84
2022/06/10 13:39:06;;;;;;;2.83;0.90;;;22.40;93.40;;;;;;5054498;28;20048;-84
2022/06/10 13:41:54;;;;;;;2.05;0.70;;;22.40;93.00;;;;;;5054262;28;20384;-84
2022/06/10 13:44:26;;;;;;;1.63;0.70;;;22.40;93.00;;;;;;5036216;28;20025;-84
2022/06/10 13:46:53;;;;;;;1.38;0.60;;;22.50;92.80;;;;;;5036203;28;20021;-84
2022/06/10 13:52:32;;;;;;;2.60;0.70;;;22.40;92.60;;;;;;5022395;28;20481;-84